Terminal Aerodrome Forecast
Issued by NWS

Home | Current Version | Previous Version | Text Only | Print | Product List | Glossary On
Versions: 1 2 3 4 5 6 7 8 9 10 11 12 13 14
000
FTUS44 KOUN 302358
TAFWWR
TAF
KWWR 302358Z 0100/0124 33011KT P6SM SCT050 SCT150
     FM011400 34014KT P6SM SCT040 BKN150
     FM011900 02013KT P6SM BKN030=

USA.gov is the U.S. government's official web portal to all federal, state and local government web resources and services.